Time;durP1;ratioP1;P1;durP2;ratioP2;P2;SDS_P1;SDS_P2;PMS_P1;PMS_P2;Temp;Humidity;BMP_temperature;BMP_pressure;BME280_temperature;BME280_humidity;BME280_pressure;Samples;Min_cycle;Max_cycle;Signal;HPM_P1;HPM_P2
2022/05/13 00:01:10;;;;;;;7.03;2.63;;;12.20;99.90;;;;;;4824885;29;20218;-81
2022/05/13 00:03:37;;;;;;;3.40;2.40;;;12.20;99.90;;;;;;4823442;29;20288;-81
2022/05/13 00:06:03;;;;;;;3.88;2.40;;;12.10;99.90;;;;;;4823182;29;20185;-82
2022/05/13 00:08:29;;;;;;;3.38;2.50;;;12.10;99.90;;;;;;4823139;29;20651;-82
2022/05/13 00:10:55;;;;;;;3.45;2.40;;;11.90;99.90;;;;;;4823028;29;20205;-82
2022/05/13 00:13:22;;;;;;;3.80;2.45;;;11.90;99.90;;;;;;4822160;29;20228;-81
2022/05/13 00:15:48;;;;;;;4.93;2.75;;;11.90;99.90;;;;;;4824705;29;20657;-81
2022/05/13 00:18:15;;;;;;;2.83;2.30;;;12.00;99.90;;;;;;4823159;29;20462;-81
2022/05/13 00:20:41;;;;;;;6.18;3.00;;;11.90;99.90;;;;;;4823630;29;20194;-82
2022/05/13 00:23:07;;;;;;;3.03;2.72;;;11.80;99.90;;;;;;4816730;29;20226;-82
2022/05/13 00:25:38;;;;;;;3.65;2.53;;;11.80;99.90;;;;;;4818029;29;20190;-81
2022/05/13 00:28:05;;;;;;;3.10;2.38;;;11.80;99.90;;;;;;4820516;29;20202;-81
2022/05/13 00:30:33;;;;;;;3.30;2.50;;;11.80;99.90;;;;;;4823300;29;20204;-81
2022/05/13 00:33:00;;;;;;;3.42;2.60;;;11.70;99.90;;;;;;4824504;29;20194;-82
2022/05/13 00:35:26;;;;;;;4.65;2.83;;;11.70;99.90;;;;;;4823997;29;20641;-81
2022/05/13 00:37:52;;;;;;;4.00;2.45;;;11.70;99.90;;;;;;4823893;29;20312;-82
2022/05/13 00:40:22;;;;;;;4.35;2.85;;;11.80;99.90;;;;;;4827905;29;20377;-81
2022/05/13 00:42:49;;;;;;;3.65;2.72;;;11.80;99.90;;;;;;4826332;29;20634;-82
2022/05/13 00:45:16;;;;;;;3.10;2.80;;;11.80;99.90;;;;;;4827862;29;20194;-81
2022/05/13 00:47:43;;;;;;;4.30;2.97;;;11.80;99.90;;;;;;4824820;29;20194;-81
2022/05/13 00:50:10;;;;;;;4.85;3.33;;;11.70;99.90;;;;;;4826566;29;20218;-81
2022/05/13 00:52:38;;;;;;;4.28;3.42;;;11.60;99.90;;;;;;4825471;29;20198;-81
2022/05/13 00:55:12;;;;;;;6.05;3.17;;;11.40;99.90;;;;;;4817581;29;20653;-81
2022/05/13 00:57:39;;;;;;;3.60;2.67;;;11.50;99.90;;;;;;4825481;29;20220;-81
2022/05/13 01:00:09;;;;;;;6.13;3.00;;;11.50;99.90;;;;;;4820299;29;20201;-82
2022/05/13 01:02:35;;;;;;;4.78;3.20;;;11.40;99.90;;;;;;4821753;29;20222;-82
2022/05/13 01:05:05;;;;;;;5.63;3.42;;;11.30;99.90;;;;;;4825677;29;20270;-81
2022/05/13 01:07:32;;;;;;;7.65;3.20;;;11.20;99.90;;;;;;4825812;29;20190;-81
2022/05/13 01:10:03;;;;;;;4.95;3.63;;;11.20;99.90;;;;;;4826778;29;20657;-82
2022/05/13 01:12:37;;;;;;;3.97;3.20;;;11.20;99.90;;;;;;4827228;29;20202;-81
2022/05/13 01:15:11;;;;;;;4.27;3.23;;;11.20;99.90;;;;;;4827741;29;21629;-81
2022/05/13 01:20:27;;;;;;;4.57;3.57;;;11.10;99.90;;;;;;4809296;29;20641;-81
2022/05/13 01:23:00;;;;;;;4.00;3.60;;;11.10;99.90;;;;;;4825584;29;20200;-81
2022/05/13 01:25:29;;;;;;;6.70;3.70;;;11.10;99.90;;;;;;4817563;29;20339;-81
2022/05/13 01:27:57;;;;;;;5.23;3.97;;;11.10;99.90;;;;;;4823322;29;20540;-81
2022/05/13 01:30:26;;;;;;;6.20;3.87;;;11.10;99.90;;;;;;4825704;29;20649;-82
2022/05/13 01:32:53;;;;;;;5.38;3.65;;;11.10;99.90;;;;;;4817210;29;20626;-82
2022/05/13 01:35:19;;;;;;;6.00;3.70;;;11.10;99.90;;;;;;4820308;29;20216;-81
2022/05/13 01:37:45;;;;;;;4.97;3.87;;;11.10;99.90;;;;;;4826846;29;20214;-81
2022/05/13 01:40:12;;;;;;;8.68;4.00;;;11.00;99.90;;;;;;4825761;29;20200;-82
2022/05/13 01:42:38;;;;;;;4.40;3.83;;;11.00;99.90;;;;;;4825137;29;20649;-82
2022/05/13 01:45:07;;;;;;;4.65;3.55;;;11.00;99.90;;;;;;4825591;29;20189;-81
2022/05/13 01:47:33;;;;;;;4.63;3.97;;;11.00;99.90;;;;;;4817931;29;20194;-81
2022/05/13 01:49:59;;;;;;;5.25;3.70;;;10.90;99.90;;;;;;4824217;29;20194;-81
2022/05/13 01:55:00;;;;;;;4.03;3.40;;;11.00;99.90;;;;;;4841531;23;20253;-81
2022/05/13 01:57:25;;;;;;;5.20;4.10;;;11.10;99.90;;;;;;4826499;29;20230;-80
2022/05/13 01:59:51;;;;;;;5.25;3.53;;;11.00;99.90;;;;;;4826904;29;20190;-80
2022/05/13 02:02:16;;;;;;;4.70;4.03;;;11.00;99.90;;;;;;4824663;29;20205;-81
2022/05/13 02:04:42;;;;;;;5.30;3.72;;;11.10;99.90;;;;;;4825914;29;20285;-81
2022/05/13 02:07:08;;;;;;;5.47;4.00;;;11.00;99.90;;;;;;4825576;29;20212;-80
2022/05/13 02:09:33;;;;;;;4.90;4.37;;;10.90;99.90;;;;;;4824801;29;20193;-80
2022/05/13 02:11:59;;;;;;;4.97;4.00;;;10.90;99.90;;;;;;4827437;29;20201;-81
2022/05/13 02:14:24;;;;;;;5.00;3.90;;;10.90;99.90;;;;;;4841009;29;20193;-79
2022/05/13 02:16:50;;;;;;;4.75;3.47;;;11.00;99.90;;;;;;4844955;29;20228;-79
2022/05/13 02:19:17;;;;;;;4.77;3.90;;;11.00;99.90;;;;;;4837536;29;20277;-80
2022/05/13 02:21:43;;;;;;;7.10;4.10;;;11.10;99.90;;;;;;4827109;29;20322;-81
2022/05/13 02:24:10;;;;;;;5.23;3.83;;;11.10;99.90;;;;;;4855405;29;20205;-80
2022/05/13 02:26:36;;;;;;;6.00;4.05;;;11.20;99.90;;;;;;4850708;29;20193;-80
2022/05/13 02:29:02;;;;;;;6.68;4.25;;;11.20;99.90;;;;;;4849750;29;20625;-80
2022/05/13 02:31:31;;;;;;;7.32;4.00;;;11.20;99.90;;;;;;4848666;29;20646;-80
2022/05/13 02:33:58;;;;;;;7.47;3.95;;;11.30;99.90;;;;;;4852794;29;20207;-81
2022/05/13 02:36:25;;;;;;;6.15;4.53;;;11.30;99.90;;;;;;4858608;29;20224;-80
2022/05/13 02:38:51;;;;;;;5.25;4.10;;;11.30;99.90;;;;;;4858222;29;20612;-80
2022/05/13 02:41:17;;;;;;;5.03;4.20;;;11.30;99.90;;;;;;4856990;29;20239;-81
2022/05/13 02:43:50;;;;;;;4.75;4.15;;;11.30;99.90;;;;;;4834015;29;20203;-80
2022/05/13 02:46:21;;;;;;;5.85;4.07;;;11.30;99.90;;;;;;4850706;29;20193;-81
2022/05/13 02:48:47;;;;;;;5.93;4.18;;;11.40;99.90;;;;;;4843917;29;20189;-81
2022/05/13 02:51:13;;;;;;;5.97;4.60;;;11.40;99.90;;;;;;4858211;29;20198;-80
2022/05/13 02:53:39;;;;;;;7.35;4.30;;;11.40;99.90;;;;;;4848611;29;20246;-80
2022/05/13 02:56:07;;;;;;;6.07;4.85;;;11.40;99.90;;;;;;4823872;29;20524;-80
2022/05/13 02:58:33;;;;;;;5.13;4.18;;;11.40;99.90;;;;;;4850920;29;20201;-80
2022/05/13 03:00:59;;;;;;;6.18;5.20;;;11.40;99.90;;;;;;4837343;29;20220;-80
2022/05/13 03:03:25;;;;;;;5.40;4.45;;;11.40;99.90;;;;;;4824775;29;20224;-81
2022/05/13 03:05:51;;;;;;;8.57;4.80;;;11.40;99.90;;;;;;4841910;29;20189;-81
2022/05/13 03:08:16;;;;;;;5.15;4.53;;;11.40;99.90;;;;;;4843353;29;20185;-80
2022/05/13 03:10:42;;;;;;;7.10;5.05;;;11.40;99.90;;;;;;4857551;29;20216;-80
2022/05/13 03:13:09;;;;;;;5.45;4.90;;;11.40;99.90;;;;;;4856213;29;20664;-80
2022/05/13 03:15:36;;;;;;;7.07;5.07;;;11.40;99.90;;;;;;4837710;29;20258;-81
2022/05/13 03:18:02;;;;;;;6.40;5.00;;;11.40;99.90;;;;;;4835822;29;20225;-81
2022/05/13 03:20:28;;;;;;;5.07;4.43;;;11.40;99.90;;;;;;4831265;29;20185;-81
2022/05/13 03:22:53;;;;;;;6.28;5.13;;;11.40;99.90;;;;;;4839505;29;20200;-81
2022/05/13 03:25:21;;;;;;;5.88;5.28;;;11.30;99.90;;;;;;4849989;29;20642;-82
2022/05/13 03:27:46;;;;;;;8.60;5.10;;;11.40;99.90;;;;;;4829319;29;20197;-81
2022/05/13 03:30:15;;;;;;;6.15;5.07;;;11.40;99.90;;;;;;4842862;29;20576;-80
2022/05/13 03:32:41;;;;;;;6.78;5.38;;;11.40;99.90;;;;;;4831683;29;20213;-81
2022/05/13 03:35:09;;;;;;;8.45;5.70;;;11.30;99.90;;;;;;4824515;29;20550;-81
2022/05/13 03:37:35;;;;;;;7.40;5.50;;;11.30;99.90;;;;;;4831277;29;20309;-81
2022/05/13 03:40:00;;;;;;;7.68;6.10;;;11.30;99.90;;;;;;4827507;29;20696;-82
2022/05/13 03:42:26;;;;;;;7.68;5.80;;;11.40;99.90;;;;;;4856632;29;20197;-81
2022/05/13 03:44:52;;;;;;;6.72;5.88;;;11.40;99.90;;;;;;4857824;29;20228;-81
2022/05/13 03:47:19;;;;;;;6.82;5.78;;;11.40;99.90;;;;;;4854975;29;20189;-82
2022/05/13 03:49:45;;;;;;;7.60;6.00;;;11.40;99.90;;;;;;4825430;29;20209;-81
2022/05/13 03:52:11;;;;;;;7.70;6.28;;;11.40;99.90;;;;;;4824320;29;20186;-81
2022/05/13 03:54:38;;;;;;;7.88;6.00;;;11.40;99.90;;;;;;4827131;29;20246;-81
2022/05/13 03:57:08;;;;;;;10.70;6.20;;;11.40;99.90;;;;;;4846929;29;20209;-81
2022/05/13 03:59:35;;;;;;;7.03;5.80;;;11.40;99.90;;;;;;4816267;29;20197;-81
2022/05/13 04:02:00;;;;;;;7.15;5.90;;;11.50;99.90;;;;;;4835922;29;20222;-81
2022/05/13 04:04:29;;;;;;;6.90;6.03;;;11.40;99.90;;;;;;4836004;29;20190;-81
2022/05/13 04:09:41;;;;;;;9.93;6.45;;;11.50;99.90;;;;;;4825125;29;20531;-82
2022/05/13 04:17:40;;;;;;;6.85;6.13;;;11.60;99.90;;;;;;4830438;29;20255;-81
2022/05/13 04:20:06;;;;;;;9.15;6.72;;;11.60;99.90;;;;;;4825217;29;20542;-81
2022/05/13 04:22:32;;;;;;;9.18;6.20;;;11.60;99.90;;;;;;4823783;29;20224;-81
2022/05/13 04:24:58;;;;;;;7.65;6.15;;;11.60;99.90;;;;;;4827402;29;20225;-81
2022/05/13 04:27:24;;;;;;;8.68;5.90;;;11.70;99.90;;;;;;4855396;29;20193;-82
2022/05/13 04:29:49;;;;;;;7.80;6.43;;;11.60;99.90;;;;;;4857230;29;20536;-81
2022/05/13 04:32:15;;;;;;;8.77;6.43;;;11.70;99.90;;;;;;4834934;29;20191;-81
2022/05/13 04:34:40;;;;;;;9.73;6.63;;;11.70;99.90;;;;;;4850810;29;21218;-81
2022/05/13 04:37:06;;;;;;;8.50;6.53;;;11.70;99.90;;;;;;4827139;29;20662;-81
2022/05/13 04:39:32;;;;;;;8.93;6.97;;;11.80;99.90;;;;;;4837538;29;20213;-81
2022/05/13 04:44:41;;;;;;;7.50;6.43;;;11.80;99.90;;;;;;4831826;29;20193;-82
2022/05/13 04:48:15;;;;;;;7.22;6.40;;;11.80;99.90;;;;;;4847233;29;20532;-82
2022/05/13 04:49:53;;;;;;;9.55;6.25;;;11.80;99.90;;;;;;4824625;29;20185;-83
2022/05/13 04:52:19;;;;;;;8.63;6.03;;;11.90;99.90;;;;;;4838722;29;20193;-83
2022/05/13 04:54:44;;;;;;;7.32;6.35;;;11.90;99.90;;;;;;4831438;29;20238;-81
2022/05/13 04:57:10;;;;;;;8.27;6.32;;;11.90;99.90;;;;;;4848230;29;20228;-82
2022/05/13 04:59:35;;;;;;;5.82;5.22;;;11.90;99.90;;;;;;4843936;29;20198;-82
2022/05/13 05:02:01;;;;;;;9.85;6.43;;;12.00;99.90;;;;;;4814207;29;20198;-82
2022/05/13 05:04:27;;;;;;;9.65;6.60;;;12.00;99.90;;;;;;4820357;29;20875;-82
2022/05/13 05:06:52;;;;;;;10.00;6.32;;;12.10;99.90;;;;;;4819973;29;20209;-82
2022/05/13 05:09:18;;;;;;;7.68;6.50;;;12.10;99.90;;;;;;4820600;29;20233;-82
2022/05/13 05:11:43;;;;;;;7.10;5.55;;;12.20;99.90;;;;;;4821713;29;20642;-81
2022/05/13 05:14:09;;;;;;;8.48;6.40;;;12.30;99.90;;;;;;4815954;29;20186;-81
2022/05/13 05:16:34;;;;;;;8.07;6.10;;;12.30;99.90;;;;;;4805355;29;20229;-82
2022/05/13 05:19:00;;;;;;;10.73;6.40;;;12.40;99.90;;;;;;4805445;29;20678;-83
2022/05/13 05:21:26;;;;;;;8.98;6.32;;;12.50;99.90;;;;;;4807029;29;20247;-83
2022/05/13 05:23:52;;;;;;;8.98;6.05;;;12.60;99.90;;;;;;4812435;29;20193;-82
2022/05/13 05:26:18;;;;;;;8.70;5.72;;;12.60;99.90;;;;;;4826148;29;20201;-82
2022/05/13 05:28:46;;;;;;;10.07;6.43;;;12.70;99.90;;;;;;4827129;29;20538;-83
2022/05/13 05:31:12;;;;;;;7.55;5.65;;;12.80;99.90;;;;;;4827739;29;20193;-83
2022/05/13 05:33:38;;;;;;;7.93;5.57;;;12.80;99.90;;;;;;4826707;29;20190;-81
2022/05/13 05:36:05;;;;;;;8.88;6.35;;;12.90;99.90;;;;;;4826501;29;20498;-81
2022/05/13 05:38:31;;;;;;;8.50;6.22;;;12.90;99.90;;;;;;4827252;29;20209;-82
2022/05/13 05:40:59;;;;;;;7.47;5.90;;;12.90;99.90;;;;;;4826500;29;20182;-83
2022/05/13 05:43:25;;;;;;;7.63;6.15;;;13.00;99.90;;;;;;4827924;29;20221;-81
2022/05/13 05:45:51;;;;;;;6.57;5.28;;;13.00;99.90;;;;;;4826637;29;20584;-83
2022/05/13 05:48:22;;;;;;;7.15;5.50;;;13.10;99.90;;;;;;4834014;29;20209;-82
2022/05/13 05:50:51;;;;;;;6.35;5.47;;;13.20;99.90;;;;;;4846198;29;20214;-82
2022/05/13 05:57:13;;;;;;;7.53;5.43;;;13.30;99.90;;;;;;4859805;29;20225;-83
2022/05/13 05:58:54;;;;;;;8.05;4.88;;;13.50;99.90;;;;;;4809829;29;20229;-82
2022/05/13 06:01:20;;;;;;;9.55;5.40;;;13.60;99.90;;;;;;4814314;29;20644;-82
2022/05/13 06:03:46;;;;;;;6.53;4.20;;;13.60;99.90;;;;;;4843671;29;20189;-83
2022/05/13 06:06:12;;;;;;;6.28;4.78;;;13.60;99.90;;;;;;4859673;29;20645;-83
2022/05/13 06:08:39;;;;;;;5.05;3.97;;;13.60;99.90;;;;;;4845741;29;20276;-83
2022/05/13 06:11:05;;;;;;;4.95;4.40;;;13.70;99.90;;;;;;4859779;29;20176;-82
2022/05/13 06:13:31;;;;;;;6.07;4.80;;;13.70;99.90;;;;;;4845500;29;20184;-83
2022/05/13 06:15:57;;;;;;;6.35;4.47;;;13.80;99.90;;;;;;4860141;29;20181;-85
2022/05/13 06:18:23;;;;;;;6.75;4.07;;;13.90;99.90;;;;;;4857277;29;20212;-83
2022/05/13 06:20:49;;;;;;;6.13;3.88;;;14.00;99.90;;;;;;4826345;29;20178;-81
2022/05/13 06:23:15;;;;;;;7.63;4.00;;;14.00;99.90;;;;;;4826148;29;20201;-82
2022/05/13 06:25:40;;;;;;;6.32;4.20;;;14.00;99.90;;;;;;4826298;29;20281;-84
2022/05/13 06:28:06;;;;;;;8.57;4.32;;;14.00;99.90;;;;;;4825363;29;20220;-84
2022/05/13 06:30:38;;;;;;;6.32;4.10;;;13.90;99.90;;;;;;4809047;29;20183;-82
2022/05/13 06:33:04;;;;;;;5.53;3.95;;;13.90;99.90;;;;;;4832167;29;20577;-84
2022/05/13 06:35:32;;;;;;;6.95;3.95;;;13.90;99.90;;;;;;4841521;29;20193;-83
2022/05/13 06:37:58;;;;;;;4.47;3.88;;;13.90;99.90;;;;;;4825944;29;20685;-84
2022/05/13 06:40:25;;;;;;;5.40;3.30;;;13.90;99.90;;;;;;4826622;29;20194;-83
2022/05/13 06:42:52;;;;;;;8.43;3.45;;;13.80;99.90;;;;;;4826751;29;20162;-83
2022/05/13 06:45:19;;;;;;;5.40;3.20;;;13.80;99.90;;;;;;4825736;29;20190;-83
2022/05/13 06:47:44;;;;;;;4.32;3.10;;;13.80;99.90;;;;;;4825495;29;20697;-84
2022/05/13 06:50:16;;;;;;;4.60;2.78;;;13.80;99.90;;;;;;4825551;29;20284;-83
2022/05/13 06:52:42;;;;;;;3.78;2.83;;;13.90;99.90;;;;;;4826981;29;20170;-83
2022/05/13 06:55:10;;;;;;;4.85;3.15;;;13.90;99.90;;;;;;4826933;29;20242;-84
2022/05/13 06:57:37;;;;;;;3.08;2.42;;;14.00;99.90;;;;;;4826594;29;20727;-87
2022/05/13 07:00:05;;;;;;;5.00;2.50;;;14.00;99.90;;;;;;4825538;29;20190;-84
2022/05/13 07:02:30;;;;;;;7.25;2.50;;;14.10;99.90;;;;;;4825610;29;20713;-83
2022/05/13 07:04:57;;;;;;;4.43;2.45;;;14.00;99.90;;;;;;4826777;29;20287;-83
2022/05/13 07:07:22;;;;;;;3.45;2.20;;;13.90;99.90;;;;;;4826672;29;20518;-85
2022/05/13 07:09:48;;;;;;;4.70;2.28;;;13.80;99.90;;;;;;4826502;29;20182;-84
2022/05/13 07:12:14;;;;;;;6.03;2.50;;;13.80;99.90;;;;;;4841237;29;20189;-83
2022/05/13 07:14:39;;;;;;;6.82;2.42;;;13.80;99.90;;;;;;4844428;29;20181;-83
2022/05/13 07:17:05;;;;;;;5.43;2.33;;;13.90;99.90;;;;;;4844381;29;20282;-83
2022/05/13 07:19:40;;;;;;;5.88;2.03;;;13.90;99.90;;;;;;4844474;29;20177;-85
2022/05/13 07:22:06;;;;;;;4.28;2.25;;;14.00;99.90;;;;;;4858950;29;20514;-84
2022/05/13 07:24:32;;;;;;;4.20;1.98;;;14.10;99.90;;;;;;4844470;29;20190;-83
2022/05/13 07:26:58;;;;;;;4.00;2.28;;;14.10;99.90;;;;;;4843368;29;20188;-82
2022/05/13 07:31:59;;;;;;;3.78;2.00;;;14.20;99.90;;;;;;5158315;24;20241;-84
2022/05/13 07:34:24;;;;;;;4.60;1.80;;;14.20;99.90;;;;;;4826240;29;20288;-84
2022/05/13 07:36:53;;;;;;;5.57;2.10;;;14.20;99.90;;;;;;4825851;29;20245;-85
2022/05/13 07:42:07;;;;;;;5.05;2.47;;;14.40;99.90;;;;;;4810349;29;20217;-87
2022/05/13 07:44:34;;;;;;;3.97;2.13;;;14.50;99.90;;;;;;4807522;29;20239;-84
2022/05/13 07:47:01;;;;;;;4.85;2.10;;;14.80;99.90;;;;;;4806797;29;20763;-84
2022/05/13 07:49:27;;;;;;;6.80;2.65;;;15.00;99.90;;;;;;4807686;29;20269;-86
2022/05/13 07:51:53;;;;;;;5.03;2.42;;;15.30;99.90;;;;;;4809191;29;20186;-87
2022/05/13 07:54:18;;;;;;;6.80;3.08;;;15.60;99.90;;;;;;4814110;29;20196;-84
2022/05/13 07:56:44;;;;;;;5.20;2.67;;;15.70;99.90;;;;;;4825949;29;20209;-86
2022/05/13 07:59:10;;;;;;;7.22;2.85;;;15.70;99.90;;;;;;4825156;29;20626;-83
2022/05/13 08:01:36;;;;;;;6.07;2.80;;;15.80;99.90;;;;;;4825273;29;20182;-87
2022/05/13 08:04:03;;;;;;;4.05;2.67;;;15.70;99.90;;;;;;4825775;29;20645;-84
2022/05/13 08:06:29;;;;;;;8.70;3.10;;;15.80;99.90;;;;;;4824721;29;20186;-81
2022/05/13 08:08:58;;;;;;;3.47;2.40;;;16.10;99.90;;;;;;4809944;29;20187;-82
2022/05/13 08:11:29;;;;;;;3.88;2.80;;;16.30;99.90;;;;;;4807148;29;20201;-82
2022/05/13 08:13:56;;;;;;;3.78;2.55;;;16.40;99.00;;;;;;4806187;29;20189;-84
2022/05/13 08:16:26;;;;;;;5.47;3.20;;;16.40;99.40;;;;;;4811094;29;20186;-81
2022/05/13 08:18:53;;;;;;;4.65;2.63;;;16.30;99.40;;;;;;4816951;29;20175;-86
2022/05/13 08:21:20;;;;;;;8.00;2.80;;;16.10;99.70;;;;;;4809553;29;20186;-79
2022/05/13 08:23:47;;;;;;;6.55;3.15;;;16.10;99.50;;;;;;4826828;29;20702;-83
2022/05/13 08:26:13;;;;;;;6.15;2.63;;;16.30;99.60;;;;;;4843475;29;20200;-85
2022/05/13 08:28:40;;;;;;;4.70;2.67;;;16.60;99.80;;;;;;4843603;29;20209;-82
2022/05/13 08:31:06;;;;;;;5.30;2.80;;;16.90;99.40;;;;;;4838611;29;20229;-84
2022/05/13 08:33:33;;;;;;;5.80;2.70;;;17.20;98.80;;;;;;4822386;29;20193;-84
2022/05/13 08:36:03;;;;;;;5.63;2.42;;;17.40;97.80;;;;;;4825324;29;20602;-82
2022/05/13 08:38:34;;;;;;;8.25;2.78;;;17.00;97.30;;;;;;4825219;29;20717;-84
2022/05/13 08:41:08;;;;;;;3.67;2.30;;;16.80;97.40;;;;;;4825502;29;20170;-81
2022/05/13 08:43:47;;;;;;;7.05;2.60;;;16.70;98.00;;;;;;4824150;29;20186;-80
2022/05/13 08:46:13;;;;;;;5.82;2.45;;;16.60;98.80;;;;;;4825009;29;20272;-83
2022/05/13 08:48:54;;;;;;;8.25;2.22;;;16.60;98.00;;;;;;4825008;29;20644;-83
2022/05/13 08:51:47;;;;;;;4.35;1.75;;;16.80;98.10;;;;;;4825229;29;20185;-81
2022/05/13 08:54:17;;;;;;;8.00;3.08;;;17.10;98.50;;;;;;4831771;29;20241;-82
2022/05/13 08:56:47;;;;;;;5.13;2.03;;;17.00;97.30;;;;;;4844122;29;20197;-82
2022/05/13 08:59:52;;;;;;;4.20;1.77;;;17.10;98.20;;;;;;4846851;29;20216;-82
2022/05/13 09:02:22;;;;;;;3.55;1.90;;;16.90;98.30;;;;;;4845762;29;20246;-82
2022/05/13 09:05:20;;;;;;;3.88;1.77;;;16.90;97.60;;;;;;4846752;29;20285;-83
2022/05/13 09:07:47;;;;;;;4.70;2.10;;;16.90;98.00;;;;;;4845892;29;20241;-83
2022/05/13 09:10:14;;;;;;;6.13;2.20;;;16.90;97.90;;;;;;4814891;29;20183;-85
2022/05/13 09:12:52;;;;;;;3.75;2.00;;;17.00;98.00;;;;;;4810019;29;20277;-84
2022/05/13 09:15:25;;;;;;;3.80;1.50;;;17.00;97.70;;;;;;4810546;29;20178;-85
2022/05/13 09:18:03;;;;;;;5.65;2.08;;;17.00;98.50;;;;;;4809973;29;20227;-81
2022/05/13 09:20:36;;;;;;;3.72;1.65;;;17.10;97.50;;;;;;4810360;29;20174;-84
2022/05/13 09:23:06;;;;;;;5.35;1.85;;;17.30;97.90;;;;;;4810021;29;20186;-84
2022/05/13 09:26:01;;;;;;;2.92;1.65;;;17.70;97.30;;;;;;4822447;29;20194;-84
2022/05/13 09:28:29;;;;;;;4.63;1.80;;;18.00;96.50;;;;;;4809781;29;20187;-82
2022/05/13 09:31:15;;;;;;;5.20;1.60;;;18.00;96.60;;;;;;4820956;29;20229;-84
2022/05/13 09:33:46;;;;;;;5.57;1.70;;;18.00;97.40;;;;;;4827860;29;20193;-83
2022/05/13 09:36:21;;;;;;;5.22;1.80;;;17.80;96.50;;;;;;4826678;29;20570;-86
2022/05/13 09:38:50;;;;;;;4.30;1.63;;;17.60;96.40;;;;;;4827554;29;20204;-85
2022/05/13 09:41:26;;;;;;;4.38;1.75;;;17.40;96.70;;;;;;4824304;29;20186;-84
2022/05/13 09:43:57;;;;;;;5.32;1.60;;;17.40;96.70;;;;;;4826862;29;20193;-82
2022/05/13 09:46:37;;;;;;;4.43;1.90;;;17.50;96.30;;;;;;4828024;29;20172;-84
2022/05/13 09:49:24;;;;;;;5.38;1.48;;;17.50;96.70;;;;;;4827659;29;20184;-84
2022/05/13 09:52:06;;;;;;;4.10;1.90;;;17.30;97.60;;;;;;4827770;29;20170;-84
2022/05/13 09:54:35;;;;;;;7.13;1.88;;;17.10;97.90;;;;;;4837023;29;20187;-85
2022/05/13 09:57:04;;;;;;;4.80;1.75;;;16.90;97.20;;;;;;4845593;29;20267;-81
2022/05/13 09:59:38;;;;;;;4.80;1.88;;;16.80;97.20;;;;;;4845833;29;20269;-85
2022/05/13 10:02:32;;;;;;;5.32;1.52;;;16.40;97.70;;;;;;4827785;29;20249;-83
2022/05/13 10:05:15;;;;;;;4.75;1.65;;;16.10;98.20;;;;;;4827562;29;20223;-82
2022/05/13 10:07:53;;;;;;;4.15;1.45;;;15.80;98.50;;;;;;4825859;29;20189;-83
2022/05/13 10:16:27;;;;;;;3.42;1.52;;;15.50;99.50;;;;;;4823602;29;20197;-84
2022/05/13 10:19:02;;;;;;;4.20;1.65;;;15.60;99.90;;;;;;4825980;29;20207;-83
2022/05/13 10:21:33;;;;;;;4.03;1.65;;;15.90;99.90;;;;;;4824002;29;20266;-81
2022/05/13 10:24:24;;;;;;;3.58;1.60;;;16.00;99.70;;;;;;4819624;29;20709;-82
2022/05/13 10:26:51;;;;;;;4.38;1.63;;;16.20;99.50;;;;;;4845285;29;20184;-81
2022/05/13 10:29:28;;;;;;;5.05;1.70;;;16.50;99.90;;;;;;4845316;29;20613;-83
2022/05/13 10:31:56;;;;;;;2.75;1.17;;;17.00;99.50;;;;;;4825325;29;20222;-82
2022/05/13 10:34:24;;;;;;;7.40;1.92;;;17.60;98.20;;;;;;4808742;29;20179;-82
2022/05/13 10:37:11;;;;;;;4.13;1.55;;;18.10;96.80;;;;;;4808763;29;20252;-85
2022/05/13 10:39:54;;;;;;;3.88;1.33;;;18.20;96.30;;;;;;4807387;29;20209;-82
2022/05/13 10:42:28;;;;;;;4.80;1.63;;;18.10;95.90;;;;;;4818271;29;20610;-84
2022/05/13 10:45:07;;;;;;;2.70;1.20;;;17.60;96.10;;;;;;4826607;29;20311;-83
2022/05/13 10:47:56;;;;;;;4.45;1.30;;;17.40;96.10;;;;;;4826865;29;20182;-84
2022/05/13 10:50:25;;;;;;;7.47;1.70;;;17.70;96.80;;;;;;4825501;29;20567;-82
2022/05/13 10:53:36;;;;;;;3.35;1.45;;;18.10;96.10;;;;;;4818474;29;20510;-82
2022/05/13 10:56:24;;;;;;;7.00;1.55;;;18.10;94.50;;;;;;4822083;29;20205;-83
2022/05/13 10:59:26;;;;;;;3.67;1.60;;;18.10;94.40;;;;;;4790575;29;20670;-84
2022/05/13 11:02:15;;;;;;;3.80;1.20;;;18.30;94.90;;;;;;4807939;29;20693;-82
2022/05/13 11:04:47;;;;;;;5.85;1.48;;;18.50;94.60;;;;;;4804348;29;20723;-83
2022/05/13 11:07:43;;;;;;;3.40;1.10;;;18.30;93.70;;;;;;4808258;29;20183;-81
2022/05/13 11:10:17;;;;;;;3.95;1.42;;;18.10;94.10;;;;;;4808362;29;20251;-84
2022/05/13 11:12:53;;;;;;;2.83;1.35;;;18.00;93.00;;;;;;4807833;29;20183;-84
2022/05/13 11:15:28;;;;;;;6.30;1.40;;;17.80;94.60;;;;;;4821429;29;20273;-83
2022/05/13 11:18:08;;;;;;;4.00;1.20;;;17.50;94.60;;;;;;4826269;29;20658;-82
2022/05/13 11:20:47;;;;;;;3.00;1.27;;;17.40;95.40;;;;;;4811591;29;20174;-82
2022/05/13 11:25:54;;;;;;;4.38;1.10;;;17.60;95.20;;;;;;4825803;29;20174;-84
2022/05/13 11:26:39;;;;;;;2.95;1.10;;;17.80;95.20;;;;;;4823265;29;20867;-83
2022/05/13 11:29:08;;;;;;;6.82;1.48;;;18.00;95.00;;;;;;4824350;29;20581;-83
2022/05/13 11:32:02;;;;;;;3.22;0.90;;;18.10;95.00;;;;;;4825904;29;20225;-82
2022/05/13 11:35:02;;;;;;;2.40;0.85;;;18.20;94.20;;;;;;4826047;29;20174;-82
2022/05/13 11:37:32;;;;;;;4.35;1.13;;;18.00;92.50;;;;;;4816433;29;20230;-86
2022/05/13 11:40:15;;;;;;;2.35;1.10;;;17.60;93.20;;;;;;4807725;29;20190;-81
2022/05/13 11:45:40;;;;;;;3.35;1.40;;;17.10;93.60;;;;;;4807768;29;20177;-85
2022/05/13 11:48:30;;;;;;;5.20;1.17;;;16.90;95.90;;;;;;4807681;29;20175;-86
2022/05/13 11:51:10;;;;;;;2.10;0.90;;;17.10;95.50;;;;;;4807815;29;20175;-83
2022/05/13 11:53:41;;;;;;;3.17;1.13;;;17.40;95.90;;;;;;4811568;29;20171;-81
2022/05/13 11:56:17;;;;;;;3.33;1.10;;;17.90;95.30;;;;;;4843693;29;20643;-82
2022/05/13 11:58:50;;;;;;;2.88;1.20;;;18.20;94.30;;;;;;4843416;29;20312;-81
2022/05/13 12:01:37;;;;;;;4.70;1.20;;;18.20;92.60;;;;;;4844102;29;20162;-81
2022/05/13 12:04:12;;;;;;;1.10;0.80;;;18.10;93.40;;;;;;4842260;29;20341;-83
2022/05/13 12:06:50;;;;;;;4.18;1.02;;;18.00;94.00;;;;;;4843897;29;20196;-82
2022/05/13 12:09:28;;;;;;;1.98;0.85;;;18.20;93.60;;;;;;4827879;29;20178;-84
2022/05/13 12:11:56;;;;;;;3.47;1.00;;;18.30;93.20;;;;;;4823953;29;20551;-82
2022/05/13 12:14:39;;;;;;;2.33;1.02;;;18.20;92.20;;;;;;4824263;29;20244;-83
2022/05/13 12:17:16;;;;;;;3.13;0.80;;;18.20;93.20;;;;;;4825408;29;20243;-83
2022/05/13 12:20:02;;;;;;;1.95;1.00;;;18.20;93.60;;;;;;4806583;29;20187;-81
2022/05/13 12:22:31;;;;;;;1.92;0.63;;;18.20;92.10;;;;;;4805493;29;20218;-82
2022/05/13 12:24:57;;;;;;;2.00;0.90;;;18.00;93.50;;;;;;4841847;29;20231;-81
2022/05/13 12:27:35;;;;;;;1.90;0.75;;;17.90;93.10;;;;;;4839868;29;20193;-81
2022/05/13 12:30:30;;;;;;;1.45;0.80;;;17.80;93.20;;;;;;4818284;29;20196;-82
2022/05/13 12:33:16;;;;;;;3.05;0.95;;;17.70;93.40;;;;;;4834549;29;20284;-84
2022/05/13 12:38:27;;;;;;;2.63;1.10;;;18.20;94.50;;;;;;4809201;29;20355;-81
2022/05/13 12:41:17;;;;;;;3.78;1.30;;;18.50;92.60;;;;;;4809639;29;20619;-81
2022/05/13 12:44:14;;;;;;;2.50;1.00;;;18.60;92.60;;;;;;4808360;29;20209;-81
2022/05/13 12:46:51;;;;;;;2.55;1.20;;;18.70;92.00;;;;;;4808389;29;20210;-80
2022/05/13 12:49:28;;;;;;;4.43;1.00;;;18.60;92.30;;;;;;4810123;29;20512;-80
2022/05/13 12:52:02;;;;;;;2.90;1.13;;;18.60;93.00;;;;;;4809417;29;20525;-81
2022/05/13 12:54:33;;;;;;;3.65;1.20;;;19.10;90.90;;;;;;4809543;29;20239;-82
2022/05/13 12:57:10;;;;;;;2.53;1.10;;;19.40;91.50;;;;;;4809579;29;20217;-80
2022/05/13 12:59:40;;;;;;;4.10;1.00;;;19.50;90.20;;;;;;4809494;29;20707;-80
2022/05/13 13:02:06;;;;;;;4.60;1.42;;;19.30;90.80;;;;;;4809305;29;20281;-82
2022/05/13 13:04:51;;;;;;;3.47;1.00;;;18.80;92.00;;;;;;4808071;29;20185;-80
2022/05/13 13:07:20;;;;;;;2.88;1.15;;;18.70;92.60;;;;;;4832514;29;20197;-81
2022/05/13 13:09:51;;;;;;;2.38;0.98;;;18.50;92.50;;;;;;4843727;29;20185;-81
2022/05/13 13:12:27;;;;;;;4.55;1.27;;;18.50;92.90;;;;;;4845787;29;20216;-81
2022/05/13 13:15:13;;;;;;;3.35;1.20;;;18.50;93.10;;;;;;4843965;29;20636;-80
2022/05/13 13:18:00;;;;;;;3.78;1.05;;;18.80;92.80;;;;;;4842496;29;20251;-80
2022/05/13 13:20:28;;;;;;;2.30;1.00;;;18.80;91.70;;;;;;4845523;29;20181;-81
2022/05/13 13:23:00;;;;;;;3.95;1.23;;;18.70;92.30;;;;;;4845289;29;20224;-81
2022/05/13 13:25:42;;;;;;;2.35;0.98;;;18.60;91.80;;;;;;4845510;29;20174;-82
2022/05/13 13:28:25;;;;;;;6.03;1.30;;;18.80;92.10;;;;;;4845427;29;20264;-81
2022/05/13 13:31:04;;;;;;;4.38;1.25;;;18.80;93.10;;;;;;4843804;29;20233;-81
2022/05/13 13:33:35;;;;;;;2.78;1.02;;;18.70;93.20;;;;;;4845021;29;20169;-81
2022/05/13 13:36:16;;;;;;;3.17;1.20;;;18.90;93.00;;;;;;4845134;29;20634;-81
2022/05/13 13:38:54;;;;;;;3.22;1.13;;;19.10;93.30;;;;;;4845186;29;20216;-84
2022/05/13 13:41:24;;;;;;;2.97;1.20;;;19.20;93.20;;;;;;4844995;29;20177;-81